Time;durP1;ratioP1;P1;durP2;ratioP2;P2;SDS_P1;SDS_P2;PMS_P1;PMS_P2;Temp;Humidity;BMP_temperature;BMP_pressure;BME280_temperature;BME280_humidity;BME280_pressure;Samples;Min_cycle;Max_cycle;Signal;HPM_P1;HPM_P2
2023/04/28 04:38:14;;;;;;;10.18;6.80;;;11.90;60.40;;;;;;5134474;23;20058;-68
2023/04/28 04:40:40;;;;;;;9.63;5.78;;;12.00;60.60;;;;;;4978105;28;20051;-68
2023/04/28 04:43:05;;;;;;;11.75;5.55;;;12.10;60.80;;;;;;4977588;28;20471;-69
2023/04/28 04:45:32;;;;;;;13.98;5.45;;;12.40;60.60;;;;;;4978456;28;20049;-69
2023/04/28 04:47:58;;;;;;;11.07;5.55;;;12.80;60.50;;;;;;4978203;28;20062;-69
2023/04/28 04:50:24;;;;;;;10.02;4.72;;;13.10;60.20;;;;;;4978021;28;20043;-70
2023/04/28 04:52:49;;;;;;;13.75;5.40;;;13.30;60.20;;;;;;4977912;28;20051;-73
2023/04/28 04:55:15;;;;;;;14.20;4.60;;;13.50;60.00;;;;;;4974192;28;20053;-72
2023/04/28 04:57:41;;;;;;;15.32;4.18;;;13.70;60.00;;;;;;4973103;28;20050;-71
2023/04/28 05:00:07;;;;;;;19.15;4.38;;;13.80;59.80;;;;;;4977719;28;20433;-71
2023/04/28 05:02:33;;;;;;;18.10;5.53;;;14.00;60.00;;;;;;4977641;28;20079;-71
2023/04/28 05:04:59;;;;;;;20.13;5.20;;;14.10;58.80;;;;;;4977482;28;20043;-74
2023/04/28 05:07:25;;;;;;;21.35;4.55;;;14.20;60.10;;;;;;4977164;28;20039;-77
2023/04/28 05:09:51;;;;;;;19.30;5.15;;;14.20;60.20;;;;;;4977885;28;20050;-74
2023/04/28 05:12:17;;;;;;;19.55;4.47;;;14.40;60.40;;;;;;4977615;28;20058;-76
2023/04/28 05:14:42;;;;;;;18.92;4.32;;;14.40;60.40;;;;;;4960125;28;20049;-75
2023/04/28 05:17:08;;;;;;;18.52;4.45;;;14.50;60.70;;;;;;4976492;28;20520;-76
2023/04/28 05:19:35;;;;;;;14.60;3.90;;;14.60;60.40;;;;;;4977296;28;20113;-76
2023/04/28 05:22:01;;;;;;;15.07;4.07;;;14.70;60.70;;;;;;4976980;28;20057;-76
2023/04/28 05:24:27;;;;;;;14.43;3.13;;;14.90;60.70;;;;;;4977447;28;20058;-76
2023/04/28 05:26:53;;;;;;;20.45;3.65;;;15.00;60.50;;;;;;4977170;28;20062;-77
2023/04/28 05:29:19;;;;;;;15.35;4.00;;;15.10;60.40;;;;;;4957014;28;20043;-79
2023/04/28 05:31:45;;;;;;;18.38;3.80;;;15.20;60.40;;;;;;4943871;29;20066;-74
2023/04/28 05:34:10;;;;;;;28.83;5.65;;;15.30;60.60;;;;;;4957448;29;20041;-76
2023/04/28 05:36:37;;;;;;;22.02;4.50;;;15.30;60.30;;;;;;4958750;28;20113;-77
2023/04/28 05:39:02;;;;;;;22.02;4.82;;;15.40;60.60;;;;;;4957000;29;20063;-76
2023/04/28 05:41:28;;;;;;;21.67;3.67;;;15.40;60.50;;;;;;4950070;28;20053;-77
2023/04/28 05:43:54;;;;;;;22.20;4.03;;;15.40;60.50;;;;;;4976590;28;20054;-77
2023/04/28 05:46:20;;;;;;;18.88;4.38;;;15.50;60.80;;;;;;4977339;28;20126;-77
2023/04/28 05:48:45;;;;;;;20.70;4.45;;;15.50;60.60;;;;;;4976944;28;20047;-82
2023/04/28 05:51:11;;;;;;;15.40;4.43;;;15.50;61.00;;;;;;4943544;28;20050;-77
2023/04/28 05:53:37;;;;;;;23.45;5.00;;;15.50;61.20;;;;;;4976862;28;20054;-76
2023/04/28 05:56:03;;;;;;;20.20;4.53;;;15.50;61.40;;;;;;4976996;28;20468;-74
2023/04/28 05:58:28;;;;;;;26.08;4.70;;;15.60;61.60;;;;;;4959019;28;20254;-76
2023/04/28 06:00:54;;;;;;;19.05;5.07;;;15.70;61.70;;;;;;4976565;28;20138;-75
2023/04/28 06:03:20;;;;;;;26.80;4.28;;;15.80;61.60;;;;;;4975838;28;20086;-75
2023/04/28 06:05:46;;;;;;;27.27;5.65;;;15.80;61.50;;;;;;4976668;28;20046;-77
2023/04/28 06:08:11;;;;;;;30.15;5.20;;;15.90;61.30;;;;;;4976423;28;20085;-75
2023/04/28 06:10:37;;;;;;;43.03;6.78;;;15.90;61.40;;;;;;4976752;28;20042;-74
2023/04/28 06:13:05;;;;;;;32.88;6.32;;;15.90;60.60;;;;;;4976776;28;20413;-75
2023/04/28 06:15:31;;;;;;;27.77;5.40;;;15.90;61.20;;;;;;4976294;28;20043;-75
2023/04/28 06:17:58;;;;;;;33.40;6.43;;;16.00;61.50;;;;;;4976363;28;20043;-75
2023/04/28 06:20:23;;;;;;;24.80;7.18;;;16.00;61.50;;;;;;4976212;28;20117;-75
2023/04/28 06:22:50;;;;;;;21.65;7.20;;;15.90;60.80;;;;;;4976548;28;20051;-74
2023/04/28 06:25:16;;;;;;;16.17;7.43;;;15.90;58.70;;;;;;4976846;28;20043;-75
2023/04/28 06:27:41;;;;;;;20.73;7.45;;;15.80;58.00;;;;;;4978789;28;20054;-74
2023/04/28 06:30:08;;;;;;;16.63;6.85;;;15.70;57.20;;;;;;4982767;28;20353;-74
2023/04/28 06:32:34;;;;;;;18.02;7.00;;;15.60;56.50;;;;;;4982769;28;20141;-74
2023/04/28 06:34:59;;;;;;;18.67;7.32;;;15.50;56.60;;;;;;4982769;28;20110;-74
2023/04/28 06:37:26;;;;;;;17.33;7.13;;;15.50;56.90;;;;;;4983073;28;20133;-75
2023/04/28 06:39:51;;;;;;;17.40;7.03;;;15.40;56.80;;;;;;4982767;28;20137;-74
2023/04/28 06:42:19;;;;;;;22.92;7.28;;;15.30;56.60;;;;;;4983377;28;20161;-75
2023/04/28 06:44:45;;;;;;;14.38;6.88;;;15.30;56.80;;;;;;4982781;28;20054;-75
2023/04/28 06:47:11;;;;;;;12.15;5.65;;;15.20;56.90;;;;;;4982745;28;20112;-75
2023/04/28 06:49:36;;;;;;;13.48;5.78;;;15.20;57.10;;;;;;4982334;28;20074;-74
2023/04/28 06:52:02;;;;;;;20.80;7.18;;;15.10;57.30;;;;;;4982260;28;20061;-74
2023/04/28 06:54:28;;;;;;;8.10;5.38;;;15.00;57.50;;;;;;4966067;28;20057;-74
2023/04/28 06:56:53;;;;;;;10.27;5.03;;;15.00;57.70;;;;;;4982701;28;20127;-75
2023/04/28 06:59:19;;;;;;;11.25;5.25;;;14.90;58.10;;;;;;4982326;28;20058;-75
2023/04/28 07:01:45;;;;;;;14.98;4.88;;;14.90;58.00;;;;;;4981634;28;20125;-75
2023/04/28 07:04:10;;;;;;;10.52;5.13;;;14.80;58.20;;;;;;4981495;28;20038;-75
2023/04/28 07:06:36;;;;;;;12.18;4.63;;;14.80;58.30;;;;;;4982856;28;20129;-74
2023/04/28 07:09:03;;;;;;;11.88;5.00;;;14.80;58.40;;;;;;4982530;28;20361;-74
2023/04/28 07:11:29;;;;;;;8.10;4.53;;;14.70;58.50;;;;;;4981879;28;20057;-74
2023/04/28 07:13:54;;;;;;;11.98;4.95;;;14.70;58.60;;;;;;4982392;28;20129;-74
2023/04/28 07:16:21;;;;;;;11.98;4.50;;;14.60;58.70;;;;;;4981772;28;20046;-74
2023/04/28 07:18:46;;;;;;;7.82;4.30;;;14.60;58.80;;;;;;4982012;28;20062;-75
2023/04/28 07:21:12;;;;;;;5.95;3.80;;;14.60;58.90;;;;;;4981544;28;20363;-74
2023/04/28 07:23:39;;;;;;;8.90;4.30;;;14.60;59.00;;;;;;4982031;28;20058;-76
2023/04/28 07:26:05;;;;;;;10.63;4.10;;;14.50;59.10;;;;;;4982407;28;20058;-75
2023/04/28 07:28:31;;;;;;;7.88;4.57;;;14.50;59.30;;;;;;4981931;28;20051;-75
2023/04/28 07:30:57;;;;;;;11.15;4.53;;;14.50;59.40;;;;;;4981781;28;20117;-75
2023/04/28 07:33:23;;;;;;;14.80;4.47;;;14.50;59.70;;;;;;4982581;28;20047;-75
2023/04/28 07:35:49;;;;;;;10.30;4.85;;;14.50;60.00;;;;;;4981580;28;20380;-75
2023/04/28 07:38:15;;;;;;;14.32;4.22;;;14.40;60.10;;;;;;4983514;28;20384;-75
2023/04/28 07:40:42;;;;;;;9.73;4.22;;;14.40;60.10;;;;;;4977753;28;20054;-75
2023/04/28 07:43:08;;;;;;;13.23;4.47;;;14.40;60.10;;;;;;4977267;28;20050;-75
2023/04/28 07:45:38;;;;;;;8.98;3.97;;;14.40;60.10;;;;;;4974072;28;20484;-77
2023/04/28 07:48:04;;;;;;;13.52;4.50;;;14.40;60.20;;;;;;4969881;28;20077;-76
2023/04/28 07:50:30;;;;;;;10.93;3.55;;;14.30;60.20;;;;;;4978822;28;20039;-76
2023/04/28 07:52:57;;;;;;;9.73;3.28;;;14.30;60.20;;;;;;4979027;28;20434;-76
2023/04/28 07:55:23;;;;;;;6.13;3.67;;;14.30;60.30;;;;;;4978632;28;20046;-77
2023/04/28 07:57:48;;;;;;;11.52;3.47;;;14.30;60.30;;;;;;4961322;28;20050;-76
2023/04/28 08:00:14;;;;;;;12.63;3.75;;;14.30;60.50;;;;;;4978249;28;20061;-76
2023/04/28 08:02:40;;;;;;;15.20;4.22;;;14.30;60.70;;;;;;4977491;28;20035;-74
2023/04/28 08:05:07;;;;;;;11.90;3.58;;;14.30;61.00;;;;;;4971068;28;20385;-73
2023/04/28 08:07:33;;;;;;;9.55;3.45;;;14.20;61.00;;;;;;4970785;28;20429;-76
2023/04/28 08:10:00;;;;;;;10.27;2.92;;;14.30;61.20;;;;;;4955074;28;20054;-75
2023/04/28 08:12:26;;;;;;;11.98;3.20;;;14.40;61.40;;;;;;4967680;28;20051;-76
2023/04/28 08:14:51;;;;;;;12.20;3.40;;;14.60;61.50;;;;;;4971954;28;20043;-74
2023/04/28 08:17:17;;;;;;;12.27;3.28;;;14.80;61.40;;;;;;4971562;28;20056;-74
2023/04/28 08:19:45;;;;;;;12.35;3.63;;;14.90;61.10;;;;;;4967440;28;20374;-76
2023/04/28 08:22:12;;;;;;;7.88;3.20;;;15.00;60.80;;;;;;4967280;28;20174;-73
2023/04/28 08:24:38;;;;;;;11.15;2.85;;;15.20;60.70;;;;;;4967146;28;20065;-73
2023/04/28 08:27:04;;;;;;;15.05;4.03;;;15.20;61.30;;;;;;4971375;28;20513;-79
2023/04/28 08:29:31;;;;;;;14.05;4.22;;;15.20;60.70;;;;;;4955146;28;20470;-78
2023/04/28 08:31:57;;;;;;;19.40;3.88;;;15.30;60.80;;;;;;4952895;28;20146;-73
2023/04/28 08:34:24;;;;;;;11.85;3.55;;;15.30;60.80;;;;;;4973869;28;20109;-71
2023/04/28 08:36:52;;;;;;;13.75;3.95;;;15.30;60.80;;;;;;4953803;28;20051;-72
2023/04/28 08:39:19;;;;;;;14.32;3.10;;;15.40;60.80;;;;;;4959287;28;20058;-72
2023/04/28 08:41:45;;;;;;;11.85;2.97;;;15.40;60.80;;;;;;4976064;28;20061;-73
2023/04/28 08:44:11;;;;;;;14.88;3.15;;;15.40;60.80;;;;;;4968439;28;20043;-72
2023/04/28 08:46:42;;;;;;;14.95;2.63;;;15.50;60.80;;;;;;4969500;28;20459;-73
2023/04/28 08:49:14;;;;;;;12.07;3.15;;;15.50;60.80;;;;;;4971128;28;20154;-74
2023/04/28 08:51:46;;;;;;;12.57;2.78;;;15.60;60.70;;;;;;4962932;28;20078;-73
2023/04/28 08:54:18;;;;;;;11.20;2.97;;;15.70;60.60;;;;;;4977730;28;20389;-72
2023/04/28 08:56:45;;;;;;;15.80;3.22;;;15.80;60.50;;;;;;4973692;28;20050;-71
2023/04/28 08:59:12;;;;;;;15.93;2.97;;;15.90;60.30;;;;;;4968321;28;20121;-71
2023/04/28 09:01:38;;;;;;;20.90;3.55;;;16.10;60.20;;;;;;4965207;28;20091;-73
2023/04/28 09:04:04;;;;;;;26.27;3.58;;;16.10;60.20;;;;;;4971294;28;20043;-72
2023/04/28 09:06:35;;;;;;;11.82;2.85;;;16.20;60.10;;;;;;4967016;28;20051;-71
2023/04/28 09:09:19;;;;;;;12.73;2.85;;;16.20;60.00;;;;;;4971293;28;20147;-72
2023/04/28 09:11:54;;;;;;;14.13;2.60;;;16.30;59.80;;;;;;4958547;29;20128;-73
2023/04/28 09:14:28;;;;;;;17.73;3.35;;;16.40;59.90;;;;;;4958320;29;20134;-72
2023/04/28 09:16:55;;;;;;;12.43;3.25;;;16.40;59.80;;;;;;4943899;28;20054;-74
2023/04/28 09:19:22;;;;;;;16.65;3.35;;;16.40;60.00;;;;;;4976450;28;20039;-72
2023/04/28 09:21:56;;;;;;;9.27;2.67;;;16.40;59.90;;;;;;4977856;28;20062;-72
2023/04/28 09:24:32;;;;;;;16.73;3.17;;;16.40;59.90;;;;;;4976988;28;20117;-69
2023/04/28 09:27:03;;;;;;;13.43;2.80;;;16.40;60.10;;;;;;4976779;28;20039;-71
2023/04/28 09:29:29;;;;;;;15.05;4.20;;;16.40;60.30;;;;;;4977237;28;20370;-69
2023/04/28 09:32:16;;;;;;;24.52;4.03;;;16.40;60.40;;;;;;4970604;28;20039;-69
2023/04/28 09:34:50;;;;;;;27.80;4.60;;;16.30;60.50;;;;;;4974998;28;20062;-69
2023/04/28 09:37:16;;;;;;;;;;;16.30;60.40;;;;;;4977057;28;20373;-69
2023/04/28 09:39:48;;;;;;;23.88;4.57;;;16.30;61.00;;;;;;4976335;28;19922;-69
2023/04/28 09:42:40;;;;;;;35.67;6.93;;;16.20;61.10;;;;;;4977061;28;20054;-69
2023/04/28 09:45:12;;;;;;;32.50;5.85;;;16.20;61.00;;;;;;4977134;28;20125;-70
2023/04/28 09:47:43;;;;;;;27.40;5.72;;;16.10;60.20;;;;;;4974405;28;20129;-69
2023/04/28 09:50:13;;;;;;;31.75;5.43;;;16.10;60.90;;;;;;4965797;28;20046;-70
2023/04/28 09:52:40;;;;;;;16.63;4.22;;;16.10;61.50;;;;;;4960992;28;20047;-71
2023/04/28 09:55:07;;;;;;;30.15;5.22;;;16.10;60.90;;;;;;4976325;28;20441;-69
2023/04/28 09:57:34;;;;;;;25.20;4.68;;;16.10;61.00;;;;;;4959778;28;20050;-69
2023/04/28 10:00:04;;;;;;;20.55;4.68;;;16.10;61.10;;;;;;4976535;28;20042;-68
2023/04/28 10:02:31;;;;;;;25.90;5.68;;;16.10;61.20;;;;;;4975833;28;20471;-69
2023/04/28 10:04:57;;;;;;;23.70;4.80;;;16.10;61.40;;;;;;4976513;28;20126;-73
2023/04/28 10:07:23;;;;;;;22.35;4.65;;;16.10;61.50;;;;;;4976793;28;20132;-69
2023/04/28 10:09:52;;;;;;;20.55;4.63;;;16.10;61.60;;;;;;4976064;28;20390;-69
2023/04/28 10:12:23;;;;;;;21.17;4.18;;;16.10;61.70;;;;;;4959241;28;20065;-69
2023/04/28 10:14:53;;;;;;;17.02;3.70;;;16.10;61.80;;;;;;4976344;28;20039;-71
2023/04/28 10:17:20;;;;;;;20.88;4.15;;;16.20;61.90;;;;;;4959064;28;20050;-69
2023/04/28 10:19:49;;;;;;;25.40;4.80;;;16.20;61.90;;;;;;4975967;28;20103;-69
2023/04/28 10:22:32;;;;;;;19.92;4.35;;;16.20;61.90;;;;;;4976236;28;20073;-70
2023/04/28 10:25:08;;;;;;;15.85;4.22;;;16.20;62.10;;;;;;4976608;28;20361;-70
2023/04/28 10:27:35;;;;;;;15.73;3.30;;;16.20;62.10;;;;;;4976415;28;20058;-70
2023/04/28 10:30:11;;;;;;;28.65;4.82;;;16.20;62.10;;;;;;4975925;28;20373;-70
2023/04/28 10:32:37;;;;;;;25.88;4.43;;;16.20;62.20;;;;;;4976096;28;20158;-70
2023/04/28 10:35:24;;;;;;;12.65;3.13;;;16.20;62.20;;;;;;4975856;28;20046;-70
2023/04/28 10:38:07;;;;;;;17.90;4.63;;;16.20;62.30;;;;;;4975776;28;20129;-70
2023/04/28 10:40:44;;;;;;;34.25;4.65;;;16.20;62.50;;;;;;4976253;28;20047;-70
2023/04/28 10:43:13;;;;;;;22.45;4.82;;;16.20;62.60;;;;;;4976340;28;20050;-69
2023/04/28 10:45:54;;;;;;;30.48;5.70;;;16.20;62.70;;;;;;4976399;28;20046;-73
2023/04/28 10:48:33;;;;;;;30.45;5.80;;;16.20;63.00;;;;;;4976172;28;20394;-72
2023/04/28 10:51:05;;;;;;;26.23;7.97;;;16.20;62.90;;;;;;4976115;28;20054;-72
2023/04/28 10:53:43;;;;;;;28.42;7.78;;;16.20;62.80;;;;;;4969421;28;20484;-73
2023/04/28 10:56:20;;;;;;;25.25;7.60;;;16.10;62.50;;;;;;4956311;29;20113;-73
2023/04/28 10:58:50;;;;;;;14.00;8.60;;;16.10;62.30;;;;;;4969994;28;20042;-71
2023/04/28 11:01:23;;;;;;;21.75;8.80;;;16.10;62.00;;;;;;4976038;28;20468;-69
2023/04/28 11:04:06;;;;;;;27.85;8.98;;;16.00;61.90;;;;;;4976087;28;20061;-69
2023/04/28 11:06:36;;;;;;;29.10;9.25;;;15.90;62.20;;;;;;4959113;28;20055;-69
2023/04/28 11:09:14;;;;;;;23.23;8.38;;;15.90;62.40;;;;;;4975816;28;20370;-67
2023/04/28 11:12:04;;;;;;;17.10;8.75;;;15.90;62.40;;;;;;4976026;28;20344;-72
2023/04/28 11:14:34;;;;;;;30.15;9.13;;;15.80;63.30;;;;;;4977588;28;20053;-71
2023/04/28 11:17:15;;;;;;;21.75;9.10;;;15.80;64.60;;;;;;4979321;28;20043;-71
2023/04/28 11:19:43;;;;;;;20.83;8.27;;;15.70;66.00;;;;;;4960013;29;20055;-71
2023/04/28 11:22:20;;;;;;;23.73;8.05;;;15.70;67.30;;;;;;4959876;29;20066;-73
2023/04/28 11:24:58;;;;;;;22.85;8.82;;;15.70;68.10;;;;;;4960798;29;20051;-71
2023/04/28 11:27:31;;;;;;;18.02;7.75;;;15.60;69.20;;;;;;4962088;28;20118;-71
2023/04/28 11:29:57;;;;;;;25.75;7.45;;;15.60;68.50;;;;;;4966864;28;20043;-70
2023/04/28 11:32:31;;;;;;;16.98;8.90;;;15.60;67.30;;;;;;4960266;29;20051;-70
2023/04/28 11:34:57;;;;;;;13.90;6.90;;;15.50;67.80;;;;;;4978459;28;20451;-69
2023/04/28 11:37:22;;;;;;;15.25;7.63;;;15.50;68.30;;;;;;4977864;28;20062;-69
2023/04/28 11:39:48;;;;;;;14.55;7.70;;;15.50;66.70;;;;;;4972868;28;20054;-68
2023/04/28 11:42:15;;;;;;;14.45;8.55;;;15.20;64.40;;;;;;4978988;28;20121;-68
2023/04/28 11:44:49;;;;;;;11.13;6.90;;;15.20;64.30;;;;;;4979105;28;20050;-68
2023/04/28 11:47:15;;;;;;;14.57;7.72;;;15.10;64.20;;;;;;4979069;28;20051;-69
2023/04/28 11:49:45;;;;;;;14.38;7.35;;;14.90;64.30;;;;;;4978779;28;20073;-68
2023/04/28 11:52:12;;;;;;;15.90;6.93;;;14.90;64.90;;;;;;4979245;28;20353;-69
2023/04/28 11:54:41;;;;;;;16.52;6.22;;;14.90;67.00;;;;;;4978668;28;20047;-70
2023/04/28 11:57:20;;;;;;;13.25;6.18;;;15.00;67.80;;;;;;4979528;28;20051;-71
2023/04/28 11:59:46;;;;;;;16.15;6.38;;;15.00;68.20;;;;;;4978679;28;20191;-71
2023/04/28 12:02:12;;;;;;;12.20;5.75;;;15.00;68.20;;;;;;4978690;28;20050;-70
2023/04/28 12:04:40;;;;;;;11.93;5.80;;;15.00;68.30;;;;;;4978657;28;20050;-70
2023/04/28 12:07:10;;;;;;;10.52;6.30;;;15.10;68.50;;;;;;4978783;28;20397;-71
2023/04/28 12:09:37;;;;;;;12.88;6.00;;;15.10;68.60;;;;;;4978274;28;20062;-70
2023/04/28 12:12:05;;;;;;;10.57;5.32;;;15.10;68.70;;;;;;4978346;28;20047;-71
2023/04/28 12:14:51;;;;;;;9.48;5.30;;;15.10;68.70;;;;;;4961462;28;20058;-70
2023/04/28 12:17:33;;;;;;;11.70;5.15;;;15.10;68.70;;;;;;4978574;28;20046;-71
2023/04/28 12:20:35;;;;;;;7.38;4.40;;;15.10;69.00;;;;;;4959131;29;20047;-70
2023/04/28 12:23:01;;;;;;;10.73;4.75;;;15.10;69.20;;;;;;4959094;29;20047;-70
2023/04/28 12:25:27;;;;;;;10.30;5.38;;;15.10;69.00;;;;;;4958349;28;20051;-71
2023/04/28 12:28:04;;;;;;;10.00;5.05;;;15.10;69.00;;;;;;4945641;28;20130;-70
2023/04/28 12:30:32;;;;;;;7.72;4.72;;;15.10;69.00;;;;;;4973436;28;20369;-71
2023/04/28 12:32:57;;;;;;;7.45;4.60;;;15.10;69.00;;;;;;4961263;28;20051;-72
2023/04/28 12:35:25;;;;;;;13.13;4.05;;;15.10;68.90;;;;;;4958782;29;20043;-70
2023/04/28 12:37:52;;;;;;;10.50;4.85;;;15.10;67.40;;;;;;4943122;28;20055;-72
2023/04/28 12:40:18;;;;;;;7.97;4.68;;;15.00;66.80;;;;;;4977682;28;20468;-71
2023/04/28 12:42:44;;;;;;;14.13;4.35;;;15.00;68.60;;;;;;4977966;28;20204;-71
2023/04/28 12:45:10;;;;;;;12.52;4.20;;;15.00;68.70;;;;;;4977697;28;20521;-72
2023/04/28 12:47:40;;;;;;;12.50;4.90;;;15.00;68.80;;;;;;4977829;28;20137;-72
2023/04/28 12:50:07;;;;;;;11.35;4.65;;;15.00;68.90;;;;;;4968635;28;20055;-72
2023/04/28 12:52:34;;;;;;;11.63;4.95;;;15.00;69.00;;;;;;4977738;28;20117;-71
2023/04/28 12:55:03;;;;;;;16.60;5.28;;;15.00;69.20;;;;;;4977506;28;20472;-71
2023/04/28 12:57:28;;;;;;;16.25;5.60;;;15.10;69.30;;;;;;4977321;28;20057;-72
2023/04/28 12:59:55;;;;;;;18.85;6.28;;;15.00;70.00;;;;;;4975653;28;20047;-71
2023/04/28 13:02:21;;;;;;;24.95;7.05;;;15.10;70.20;;;;;;4958502;29;20051;-73
2023/04/28 13:04:47;;;;;;;23.65;6.53;;;15.10;69.80;;;;;;4958366;29;20051;-72
2023/04/28 13:07:14;;;;;;;24.60;7.25;;;15.20;70.00;;;;;;4974135;28;20043;-71
2023/04/28 13:09:41;;;;;;;26.13;6.28;;;15.30;70.00;;;;;;4967582;28;20039;-73
2023/04/28 13:12:07;;;;;;;25.08;6.00;;;15.40;69.80;;;;;;4974757;28;20074;-73
2023/04/28 13:14:33;;;;;;;20.27;5.22;;;15.60;70.20;;;;;;4975560;28;20160;-72
2023/04/28 13:17:00;;;;;;;21.65;5.10;;;15.70;70.30;;;;;;4977107;28;20465;-74
2023/04/28 13:19:26;;;;;;;18.38;5.15;;;15.80;69.80;;;;;;4976719;28;20118;-73
2023/04/28 13:21:53;;;;;;;14.32;4.47;;;15.90;69.70;;;;;;4977018;28;20050;-73
2023/04/28 13:24:19;;;;;;;10.10;4.70;;;16.00;69.50;;;;;;4970296;28;20074;-73
2023/04/28 13:26:45;;;;;;;9.23;4.22;;;16.10;69.30;;;;;;4967825;28;20142;-71
2023/04/28 13:29:13;;;;;;;14.25;3.97;;;16.10;69.90;;;;;;4965965;28;20043;-74
2023/04/28 13:31:42;;;;;;;13.95;3.65;;;16.10;69.70;;;;;;4967321;28;20125;-71
2023/04/28 13:34:10;;;;;;;11.25;4.00;;;16.10;68.80;;;;;;4965623;28;20134;-72
2023/04/28 13:36:37;;;;;;;11.02;3.00;;;16.10;69.60;;;;;;4968001;28;20071;-76
2023/04/28 13:39:02;;;;;;;16.85;3.53;;;16.10;68.70;;;;;;4958841;28;20509;-76
2023/04/28 13:41:28;;;;;;;12.10;3.70;;;16.10;68.40;;;;;;4970430;28;20114;-76
2023/04/28 13:43:54;;;;;;;13.13;3.63;;;16.10;68.30;;;;;;4965858;28;20046;-74
2023/04/28 13:46:20;;;;;;;13.07;3.88;;;16.10;68.30;;;;;;4969039;28;20466;-77
2023/04/28 13:48:46;;;;;;;12.05;3.40;;;16.10;68.30;;;;;;4968724;28;20051;-74
2023/04/28 13:51:12;;;;;;;10.35;3.10;;;16.10;68.30;;;;;;4933804;28;20057;-74
2023/04/28 13:53:38;;;;;;;11.93;2.80;;;16.10;68.70;;;;;;4965266;28;20055;-75
2023/04/28 13:56:05;;;;;;;12.95;4.10;;;16.10;68.50;;;;;;4966191;28;20054;-73
2023/04/28 13:58:31;;;;;;;11.85;3.78;;;16.10;68.50;;;;;;4966705;28;20370;-74
2023/04/28 14:00:58;;;;;;;6.80;2.67;;;16.10;68.50;;;;;;4965880;28;20038;-77
2023/04/28 14:03:25;;;;;;;6.60;2.63;;;16.10;69.10;;;;;;4967248;28;20042;-74
2023/04/28 14:05:52;;;;;;;12.23;2.75;;;16.20;68.60;;;;;;4968853;28;20054;-73
2023/04/28 14:08:19;;;;;;;9.65;3.13;;;16.20;68.50;;;;;;4965410;28;20090;-74
2023/04/28 14:10:45;;;;;;;7.13;3.15;;;16.30;68.30;;;;;;4966260;28;20050;-74
2023/04/28 14:13:11;;;;;;;5.60;2.75;;;16.40;68.10;;;;;;4969974;28;20354;-75
2023/04/28 14:15:38;;;;;;;11.00;2.50;;;16.50;67.90;;;;;;4949452;28;20058;-73
2023/04/28 14:18:04;;;;;;;7.38;2.40;;;16.50;67.60;;;;;;4949348;28;20047;-74
2023/04/28 14:20:30;;;;;;;6.40;2.20;;;16.60;67.50;;;;;;4966931;28;20050;-74
2023/04/28 14:22:56;;;;;;;4.32;2.28;;;16.60;67.50;;;;;;4965121;28;20054;-73
2023/04/28 14:25:22;;;;;;;6.13;2.38;;;16.60;67.40;;;;;;4976080;28;20058;-74
2023/04/28 14:27:49;;;;;;;12.38;2.55;;;16.60;67.40;;;;;;4942829;28;20429;-72
2023/04/28 14:30:15;;;;;;;14.50;2.92;;;16.40;66.50;;;;;;4975970;28;20133;-73
2023/04/28 14:32:41;;;;;;;18.95;3.42;;;16.50;67.80;;;;;;4975844;28;20125;-74
2023/04/28 14:35:08;;;;;;;21.92;4.22;;;16.50;68.00;;;;;;4976267;28;20405;-77
2023/04/28 14:37:34;;;;;;;16.05;3.97;;;16.50;68.00;;;;;;4976072;28;20339;-78
2023/04/28 14:40:00;;;;;;;17.45;3.75;;;16.50;68.20;;;;;;4975501;28;20065;-76
2023/04/28 14:42:32;;;;;;;17.35;3.63;;;16.50;68.20;;;;;;4976497;28;20421;-76
2023/04/28 14:45:15;;;;;;;15.38;3.90;;;16.50;68.30;;;;;;4958968;28;20455;-77
2023/04/28 14:47:41;;;;;;;17.55;3.90;;;16.40;68.30;;;;;;4975996;28;20404;-79
2023/04/28 14:50:08;;;;;;;21.00;4.55;;;16.40;68.30;;;;;;4979088;28;20110;-75
2023/04/28 14:52:34;;;;;;;20.52;10.02;;;16.40;68.50;;;;;;4980721;28;20047;-82
2023/04/28 14:55:01;;;;;;;21.92;9.05;;;16.40;69.10;;;;;;4980024;28;20046;-77
2023/04/28 14:57:27;;;;;;;25.23;10.02;;;16.40;69.90;;;;;;4979920;28;20114;-77
2023/04/28 14:59:53;;;;;;;27.88;14.23;;;16.30;70.30;;;;;;4978839;28;20055;-77
2023/04/28 15:02:25;;;;;;;29.35;16.50;;;16.30;71.10;;;;;;4963256;28;20038;-82
2023/04/28 15:04:51;;;;;;;31.25;10.18;;;16.30;70.80;;;;;;4946963;28;20141;-72
2023/04/28 15:07:19;;;;;;;31.85;8.15;;;16.30;70.10;;;;;;4979653;28;20105;-75
2023/04/28 15:09:45;;;;;;;27.65;6.82;;;16.40;69.90;;;;;;4979081;28;20042;-82
2023/04/28 15:12:10;;;;;;;18.73;7.55;;;16.40;69.50;;;;;;4979562;28;20050;-74
2023/04/28 15:14:36;;;;;;;13.57;6.72;;;16.40;69.20;;;;;;4979393;28;20520;-75
2023/04/28 15:17:03;;;;;;;13.68;7.03;;;16.50;69.00;;;;;;4978953;28;20042;-77
2023/04/28 15:19:30;;;;;;;14.20;6.78;;;16.40;68.70;;;;;;4979164;28;20043;-75
2023/04/28 15:21:56;;;;;;;10.27;7.03;;;16.40;68.50;;;;;;4979492;28;20335;-75
2023/04/28 15:24:22;;;;;;;12.02;7.63;;;16.40;68.30;;;;;;4979376;28;20073;-74
2023/04/28 15:26:48;;;;;;;12.23;6.97;;;16.40;68.20;;;;;;4978308;28;20043;-74
2023/04/28 15:29:15;;;;;;;12.05;6.93;;;16.40;68.20;;;;;;4978990;28;20043;-73
2023/04/28 15:31:40;;;;;;;9.20;6.78;;;16.40;68.20;;;;;;4979144;28;20094;-74
2023/04/28 15:34:06;;;;;;;11.98;8.00;;;16.40;68.10;;;;;;4979549;28;20078;-71
2023/04/28 15:36:36;;;;;;;10.07;7.38;;;16.40;68.90;;;;;;4979109;28;20508;-74
2023/04/28 15:39:04;;;;;;;16.50;7.13;;;16.30;69.10;;;;;;4978568;28;20047;-73
2023/04/28 15:41:31;;;;;;;14.60;7.65;;;16.20;69.40;;;;;;4979153;28;20622;-73
2023/04/28 15:43:57;;;;;;;23.70;8.30;;;16.20;69.80;;;;;;4978066;28;20081;-72
2023/04/28 15:46:22;;;;;;;17.02;7.70;;;16.20;70.60;;;;;;4978114;28;20070;-72
2023/04/28 15:48:48;;;;;;;14.63;7.65;;;16.20;70.80;;;;;;4978692;28;20398;-72
2023/04/28 15:51:14;;;;;;;21.80;7.25;;;16.20;71.60;;;;;;4979088;28;20058;-73
2023/04/28 15:53:40;;;;;;;18.13;7.60;;;16.10;72.10;;;;;;4978616;28;20121;-73
2023/04/28 15:56:07;;;;;;;14.98;7.07;;;16.10;72.60;;;;;;4961403;28;20054;-72
2023/04/28 15:58:33;;;;;;;16.20;6.68;;;16.10;72.80;;;;;;4979000;28;20073;-72
2023/04/28 16:00:59;;;;;;;18.85;7.07;;;16.00;73.40;;;;;;4977517;28;20050;-72
2023/04/28 16:03:25;;;;;;;19.83;6.90;;;16.00;73.20;;;;;;4978602;28;20051;-72
2023/04/28 16:05:55;;;;;;;20.23;6.18;;;16.00;73.40;;;;;;4978903;28;20339;-72
2023/04/28 16:08:24;;;;;;;22.48;6.60;;;15.90;73.60;;;;;;4977375;28;20505;-72
2023/04/28 16:10:51;;;;;;;22.58;6.13;;;16.00;73.50;;;;;;4978385;28;20057;-72
2023/04/28 16:13:18;;;;;;;26.85;7.70;;;16.00;73.80;;;;;;4978473;28;20043;-72
2023/04/28 16:15:44;;;;;;;19.50;6.38;;;16.00;73.90;;;;;;4978562;28;20051;-72
2023/04/28 16:18:11;;;;;;;30.00;6.53;;;16.00;73.90;;;;;;4977736;28;20481;-72
2023/04/28 16:20:37;;;;;;;28.45;7.05;;;16.00;74.00;;;;;;4978478;28;20047;-72
2023/04/28 16:23:05;;;;;;;26.05;6.63;;;15.90;74.00;;;;;;4978176;28;20051;-76
2023/04/28 16:25:30;;;;;;;32.20;6.78;;;16.00;74.00;;;;;;4961431;28;20043;-74
2023/04/28 16:27:56;;;;;;;20.52;6.50;;;15.90;74.00;;;;;;4972874;28;20476;-75
2023/04/28 16:30:22;;;;;;;22.67;5.88;;;15.90;73.80;;;;;;4978223;28;20043;-75
2023/04/28 16:32:48;;;;;;;29.00;6.22;;;16.00;73.80;;;;;;4978245;28;20073;-75
2023/04/28 16:35:14;;;;;;;22.85;6.55;;;15.90;73.90;;;;;;4978407;28;20445;-75
2023/04/28 16:37:39;;;;;;;28.20;6.15;;;15.90;73.90;;;;;;4977121;28;20046;-77
2023/04/28 16:40:07;;;;;;;42.90;7.60;;;15.90;73.90;;;;;;4977193;28;20055;-74
2023/04/28 16:42:33;;;;;;;30.45;6.32;;;15.90;73.90;;;;;;4977516;28;20462;-74
2023/04/28 16:44:59;;;;;;;48.90;8.40;;;15.90;73.90;;;;;;4977461;28;20046;-76
2023/04/28 16:47:25;;;;;;;30.15;7.00;;;15.90;74.00;;;;;;4961077;28;20062;-75
2023/04/28 16:49:52;;;;;;;34.88;6.38;;;15.90;74.00;;;;;;4978089;28;20059;-75
2023/04/28 16:52:18;;;;;;;33.53;6.32;;;15.90;74.00;;;;;;4977884;28;20055;-76
2023/04/28 16:54:44;;;;;;;29.70;6.05;;;15.90;74.00;;;;;;4975722;28;20058;-75
2023/04/28 16:57:10;;;;;;;32.92;6.85;;;15.90;74.00;;;;;;4977490;28;20378;-75
2023/04/28 20:07:56;;;;;;;21.10;15.25;;;14.60;70.00;;;;;;5876050;23;20046;-70
2023/04/28 20:10:22;;;;;;;21.98;15.50;;;14.50;70.60;;;;;;4930112;29;20044;-70
2023/04/28 20:12:48;;;;;;;20.00;14.73;;;14.40;71.20;;;;;;4939248;29;20044;-69
2023/04/28 20:15:15;;;;;;;22.90;15.50;;;14.50;71.60;;;;;;4940086;29;20374;-70
2023/04/28 20:17:41;;;;;;;21.38;16.10;;;14.50;71.40;;;;;;4939982;29;20058;-70
2023/04/28 20:20:07;;;;;;;22.60;16.10;;;14.60;71.30;;;;;;4939789;29;20057;-70
2023/04/28 20:22:34;;;;;;;19.83;15.88;;;14.60;71.10;;;;;;4939993;29;20043;-71
2023/04/28 20:25:04;;;;;;;20.05;16.40;;;14.70;71.10;;;;;;4939953;29;20066;-69
2023/04/28 20:27:32;;;;;;;22.08;17.88;;;14.70;71.00;;;;;;4940384;29;20526;-70